Time;durP1;ratioP1;P1;durP2;ratioP2;P2;SDS_P1;SDS_P2;PMS_P1;PMS_P2;Temp;Humidity;BMP_temperature;BMP_pressure;BME280_temperature;BME280_humidity;BME280_pressure;Samples;Min_cycle;Max_cycle;Signal;HPM_P1;HPM_P2
2022/10/15 00:02:11;;;;;;;37.87;29.40;;;;;;;;;;5054124;28;20178;-65
2022/10/15 00:04:37;;;;;;;36.23;25.40;;;;;;;;;;5053940;28;20202;-65
2022/10/15 00:07:03;;;;;;;33.43;24.93;;;;;;;;;;5052616;28;20202;-65
2022/10/15 00:09:29;;;;;;;38.47;24.80;;;;;;;;;;5053988;28;20674;-65
2022/10/15 00:11:55;;;;;;;29.80;24.50;;;;;;;;;;5053928;28;20175;-65
2022/10/15 00:14:20;;;;;;;35.23;25.87;;;;;;;;;;5053204;28;20241;-66
2022/10/15 00:16:46;;;;;;;39.23;27.63;;;;;;;;;;5053976;28;20285;-65
2022/10/15 00:19:12;;;;;;;42.27;27.77;;;;;;;;;;5052682;28;20220;-66
2022/10/15 00:21:39;;;;;;;51.73;31.40;;;;;;;;;;5052786;28;20268;-65
2022/10/15 00:24:05;;;;;;;45.07;27.73;;;;;;;;;;5054145;28;20198;-65
2022/10/15 00:26:31;;;;;;;38.40;28.80;;;;;;;;;;5052442;28;20202;-65
2022/10/15 00:28:59;;;;;;;41.03;29.07;;;;;;;;;;5053722;28;20186;-65
2022/10/15 00:31:26;;;;;;;43.10;28.10;;;;;;;;;;5053651;28;20178;-65
2022/10/15 00:33:53;;;;;;;44.07;29.57;;;;;;;;;;5052369;28;20188;-65
2022/10/15 00:36:24;;;;;;;43.70;29.30;;;;;;;;;;5052368;28;20198;-65
2022/10/15 00:38:50;;;;;;;52.80;32.23;;;;;;;;;;5052149;28;20186;-65
2022/10/15 00:41:18;;;;;;;41.43;30.07;;;;;;;;;;5052075;28;20189;-66
2022/10/15 00:43:45;;;;;;;43.40;30.43;;;;;;;;;;5053614;28;20647;-64
2022/10/15 00:46:20;;;;;;;39.07;29.50;;;;;;;;;;5054198;28;20205;-65
2022/10/15 00:48:48;;;;;;;46.30;32.07;;;;;;;;;;5053670;28;20537;-65
2022/10/15 00:51:14;;;;;;;41.10;32.27;;;;;;;;;;5052558;28;20182;-65
2022/10/15 00:53:40;;;;;;;44.83;31.43;;;;;;;;;;5053772;28;20178;-64
2022/10/15 00:56:06;;;;;;;46.43;31.57;;;;;;;;;;5053895;28;20214;-64
2022/10/15 00:58:34;;;;;;;46.27;30.53;;;;;;;;;;5054229;28;20666;-65
2022/10/15 01:01:00;;;;;;;45.60;30.63;;;;;;;;;;5052418;28;20178;-67
2022/10/15 01:03:26;;;;;;;42.77;31.00;;;;;;;;;;5053885;28;20193;-65
2022/10/15 01:05:52;;;;;;;44.60;31.47;;;;;;;;;;5053467;28;20289;-65
2022/10/15 01:08:19;;;;;;;46.37;32.37;;;;;;;;;;5052208;28;20178;-65
2022/10/15 01:10:45;;;;;;;51.53;33.67;;;;;;;;;;5053718;28;20184;-65
2022/10/15 01:13:10;;;;;;;47.50;31.90;;;;;;;;;;5053011;28;20253;-66
2022/10/15 01:15:36;;;;;;;49.67;32.33;;;;;;;;;;5052940;28;20202;-65
2022/10/15 01:18:07;;;;;;;45.47;30.97;;;;;;;;;;5053393;28;20182;-65
2022/10/15 01:20:52;;;;;;;43.10;30.67;;;;;;;;;;5051650;28;20269;-66
2022/10/15 01:23:36;;;;;;;42.27;30.80;;;;;;;;;;5053406;28;20178;-65
2022/10/15 01:26:10;;;;;;;47.93;32.80;;;;;;;;;;5053133;28;20232;-65
2022/10/15 01:28:55;;;;;;;48.53;31.97;;;;;;;;;;5053664;28;20170;-63
2022/10/15 01:31:42;;;;;;;48.57;35.40;;;;;;;;;;5052870;28;20247;-66
2022/10/15 01:34:18;;;;;;;57.13;35.90;;;;;;;;;;5053278;28;20171;-65
2022/10/15 01:36:44;;;;;;;51.23;36.13;;;;;;;;;;5052019;28;20248;-65
2022/10/15 01:39:21;;;;;;;60.00;37.23;;;;;;;;;;5052950;28;20179;-65
2022/10/15 01:41:51;;;;;;;57.70;36.43;;;;;;;;;;5053020;28;20162;-64
2022/10/15 01:44:22;;;;;;;58.73;38.47;;;;;;;;;;5052612;28;20208;-64
2022/10/15 01:46:56;;;;;;;51.73;36.70;;;;;;;;;;5052528;28;20281;-63
2022/10/15 01:49:25;;;;;;;56.60;37.27;;;;;;;;;;5052849;28;20330;-64
2022/10/15 01:51:53;;;;;;;61.57;38.27;;;;;;;;;;5055491;28;20186;-64
2022/10/15 01:54:20;;;;;;;62.70;39.37;;;;;;;;;;5056410;28;20182;-64
2022/10/15 01:56:48;;;;;;;56.77;38.37;;;;;;;;;;5056172;28;20235;-64
2022/10/15 01:59:16;;;;;;;57.70;38.00;;;;;;;;;;5056330;28;20587;-64
2022/10/15 02:01:43;;;;;;;60.03;39.30;;;;;;;;;;5056522;28;20178;-64
2022/10/15 02:04:19;;;;;;;61.67;39.57;;;;;;;;;;5054884;28;20205;-64
2022/10/15 02:06:47;;;;;;;62.20;39.33;;;;;;;;;;5054743;28;20232;-64
2022/10/15 02:09:13;;;;;;;65.47;41.10;;;;;;;;;;5056432;28;20251;-64
2022/10/15 02:11:57;;;;;;;59.07;39.83;;;;;;;;;;5056244;28;20662;-64
2022/10/15 02:14:34;;;;;;;60.07;38.97;;;;;;;;;;5055962;28;20603;-64
2022/10/15 02:17:09;;;;;;;65.63;41.10;;;;;;;;;;5055986;28;20205;-64
2022/10/15 02:20:13;;;;;;;62.90;41.40;;;;;;;;;;5054902;28;20590;-64
2022/10/15 02:22:43;;;;;;;68.23;41.03;;;;;;;;;;4994819;28;20188;-64
2022/10/15 02:25:13;;;;;;;63.77;40.40;;;;;;;;;;4994773;28;20663;-64
2022/10/15 02:27:40;;;;;;;62.27;40.87;;;;;;;;;;5026769;28;20274;-64
2022/10/15 02:30:07;;;;;;;67.10;42.43;;;;;;;;;;5055733;28;20258;-64
2022/10/15 02:32:35;;;;;;;69.07;41.83;;;;;;;;;;5055706;28;20232;-64
2022/10/15 02:35:01;;;;;;;68.13;43.07;;;;;;;;;;5055549;28;20185;-65
2022/10/15 02:37:27;;;;;;;67.90;43.57;;;;;;;;;;5054269;28;20693;-64
2022/10/15 02:39:53;;;;;;;65.53;43.17;;;;;;;;;;5055862;28;20647;-64
2022/10/15 02:42:19;;;;;;;68.80;43.77;;;;;;;;;;5055433;28;20178;-66
2022/10/15 02:44:45;;;;;;;79.10;46.00;;;;;;;;;;5054029;28;20203;-65
2022/10/15 02:47:12;;;;;;;76.17;45.37;;;;;;;;;;5055264;28;20194;-65
2022/10/15 02:49:38;;;;;;;69.87;43.93;;;;;;;;;;5055340;28;20178;-66
2022/10/15 02:52:04;;;;;;;74.90;45.33;;;;;;;;;;5055299;28;20272;-65
2022/10/15 02:54:30;;;;;;;75.97;46.23;;;;;;;;;;5055245;28;20175;-67
2022/10/15 02:56:56;;;;;;;68.43;43.90;;;;;;;;;;5055168;28;20705;-66
2022/10/15 02:59:22;;;;;;;65.70;43.87;;;;;;;;;;5055309;28;20210;-65
2022/10/15 03:01:48;;;;;;;70.50;46.00;;;;;;;;;;5054954;28;20174;-65
2022/10/15 03:04:14;;;;;;;67.43;43.17;;;;;;;;;;5052964;28;20178;-65
2022/10/15 03:06:40;;;;;;;70.23;46.17;;;;;;;;;;5055178;28;20233;-65
2022/10/15 03:09:06;;;;;;;72.03;46.27;;;;;;;;;;5055060;28;20296;-65
2022/10/15 03:11:32;;;;;;;72.33;45.50;;;;;;;;;;5053656;28;20190;-65
2022/10/15 03:13:58;;;;;;;72.03;46.47;;;;;;;;;;5055024;28;20220;-65
2022/10/15 03:16:24;;;;;;;70.70;45.23;;;;;;;;;;5053654;28;20206;-65
2022/10/15 03:18:50;;;;;;;64.23;44.67;;;;;;;;;;5054997;28;20608;-65
2022/10/15 03:21:15;;;;;;;66.53;43.57;;;;;;;;;;5055230;28;20544;-65
2022/10/15 03:23:41;;;;;;;67.23;44.53;;;;;;;;;;5054839;28;20544;-66
2022/10/15 03:26:07;;;;;;;65.00;43.63;;;;;;;;;;5054652;28;20263;-65
2022/10/15 03:28:33;;;;;;;73.57;45.43;;;;;;;;;;5055129;28;20572;-65
2022/10/15 03:30:59;;;;;;;63.63;43.67;;;;;;;;;;5055044;28;20171;-65
2022/10/15 03:33:25;;;;;;;70.80;42.60;;;;;;;;;;5055035;28;20262;-65
2022/10/15 03:35:51;;;;;;;66.90;43.83;;;;;;;;;;5055191;28;20202;-65
2022/10/15 03:38:17;;;;;;;64.20;42.03;;;;;;;;;;5055039;28;20647;-65
2022/10/15 03:40:45;;;;;;;67.27;44.37;;;;;;;;;;5053325;28;20214;-65
2022/10/15 03:43:11;;;;;;;59.47;41.50;;;;;;;;;;5054626;28;20619;-64
2022/10/15 03:45:37;;;;;;;65.43;42.70;;;;;;;;;;5054451;28;20285;-65
2022/10/15 03:48:03;;;;;;;68.10;42.73;;;;;;;;;;5054963;28;20704;-66
2022/10/15 03:50:29;;;;;;;57.90;40.37;;;;;;;;;;5053271;28;20558;-65
2022/10/15 03:52:55;;;;;;;63.00;40.63;;;;;;;;;;5055040;28;20171;-65
2022/10/15 03:55:21;;;;;;;61.17;40.70;;;;;;;;;;5054361;28;20214;-65
2022/10/15 03:57:46;;;;;;;61.93;40.90;;;;;;;;;;5054114;28;20206;-65
2022/10/15 04:00:13;;;;;;;57.43;39.70;;;;;;;;;;5054378;28;20185;-65
2022/10/15 04:02:39;;;;;;;63.27;41.10;;;;;;;;;;5052834;28;20188;-65
2022/10/15 04:05:05;;;;;;;64.13;40.37;;;;;;;;;;5052686;28;20259;-65
2022/10/15 04:07:31;;;;;;;60.47;41.07;;;;;;;;;;5052666;28;20639;-65
2022/10/15 04:09:57;;;;;;;56.10;40.60;;;;;;;;;;5053933;28;20178;-65
2022/10/15 04:12:23;;;;;;;58.00;38.77;;;;;;;;;;5052896;28;20222;-66
2022/10/15 04:14:49;;;;;;;61.73;40.63;;;;;;;;;;5052125;28;20182;-65
2022/10/15 04:17:15;;;;;;;58.37;39.57;;;;;;;;;;5053749;28;20332;-65
2022/10/15 04:19:41;;;;;;;59.40;40.20;;;;;;;;;;5053778;28;20182;-65
2022/10/15 04:22:07;;;;;;;56.27;39.90;;;;;;;;;;5054282;28;20181;-65
2022/10/15 04:24:33;;;;;;;57.67;38.80;;;;;;;;;;5053689;28;20229;-65
2022/10/15 04:26:59;;;;;;;54.27;38.77;;;;;;;;;;5053827;28;20213;-65
2022/10/15 04:29:25;;;;;;;58.13;38.07;;;;;;;;;;5052185;28;20182;-66
2022/10/15 04:31:51;;;;;;;57.30;37.23;;;;;;;;;;5053668;28;20217;-65
2022/10/15 04:34:17;;;;;;;51.50;36.97;;;;;;;;;;5053665;28;20631;-65
2022/10/15 04:36:43;;;;;;;49.57;35.87;;;;;;;;;;5053399;28;20198;-65
2022/10/15 04:39:09;;;;;;;52.50;35.37;;;;;;;;;;5052223;28;20555;-65
2022/10/15 04:41:35;;;;;;;48.33;35.13;;;;;;;;;;5053410;28;20203;-65
2022/10/15 04:46:44;;;;;;;51.50;35.43;;;;;;;;;;5052359;28;20647;-70
2022/10/15 04:49:10;;;;;;;47.03;35.00;;;;;;;;;;5053247;28;20181;-70
2022/10/15 04:51:36;;;;;;;48.20;34.70;;;;;;;;;;5053540;28;20246;-70
2022/10/15 04:54:02;;;;;;;48.63;33.97;;;;;;;;;;5053101;28;20178;-70
2022/10/15 04:56:28;;;;;;;50.43;34.10;;;;;;;;;;5035198;28;20195;-70
2022/10/15 04:58:54;;;;;;;48.43;34.87;;;;;;;;;;5035110;28;20616;-70
2022/10/15 05:01:20;;;;;;;50.87;35.13;;;;;;;;;;5053127;28;20171;-70
2022/10/15 05:03:47;;;;;;;49.37;34.17;;;;;;;;;;5053001;28;20173;-70
2022/10/15 05:06:14;;;;;;;49.90;34.63;;;;;;;;;;5053368;28;20206;-70
2022/10/15 05:08:40;;;;;;;61.30;37.17;;;;;;;;;;5052875;28;20174;-69
2022/10/15 05:11:08;;;;;;;50.33;34.60;;;;;;;;;;5053393;28;20171;-70
2022/10/15 05:13:34;;;;;;;53.53;34.87;;;;;;;;;;5053068;28;20551;-70
2022/10/15 05:16:10;;;;;;;46.93;33.87;;;;;;;;;;5052901;28;20206;-70
2022/10/15 05:18:37;;;;;;;47.50;34.27;;;;;;;;;;5052879;28;20526;-68
2022/10/15 05:21:04;;;;;;;50.83;33.10;;;;;;;;;;5034981;28;20642;-70
2022/10/15 05:23:30;;;;;;;47.67;33.73;;;;;;;;;;5034997;28;20209;-70
2022/10/15 05:25:58;;;;;;;50.00;33.67;;;;;;;;;;5054133;28;20601;-70
2022/10/15 05:28:24;;;;;;;51.50;32.90;;;;;;;;;;5039031;28;20712;-70
2022/10/15 05:30:50;;;;;;;45.73;31.37;;;;;;;;;;5039145;28;20186;-70
2022/10/15 05:33:16;;;;;;;45.47;31.80;;;;;;;;;;5057111;28;20174;-70
2022/10/15 05:35:42;;;;;;;44.30;31.90;;;;;;;;;;5056943;28;20205;-71
2022/10/15 05:38:08;;;;;;;54.53;35.10;;;;;;;;;;5056883;28;20186;-70
2022/10/15 05:40:34;;;;;;;53.73;34.73;;;;;;;;;;5056865;28;20214;-70
2022/10/15 05:43:00;;;;;;;56.80;33.57;;;;;;;;;;5056695;28;20228;-69
2022/10/15 05:45:26;;;;;;;49.00;33.57;;;;;;;;;;5056652;28;20210;-70
2022/10/15 05:47:55;;;;;;;48.27;32.57;;;;;;;;;;5038765;28;20214;-70
2022/10/15 05:50:22;;;;;;;47.60;34.20;;;;;;;;;;5038685;28;20267;-70
2022/10/15 05:52:48;;;;;;;49.03;33.90;;;;;;;;;;5038658;28;20181;-70
2022/10/15 05:55:14;;;;;;;47.50;32.60;;;;;;;;;;5038389;28;20221;-70
2022/10/15 05:57:40;;;;;;;46.83;33.23;;;;;;;;;;5038561;28;20558;-70
2022/10/15 06:00:07;;;;;;;46.43;32.10;;;;;;;;;;5056410;28;20190;-70
2022/10/15 06:02:33;;;;;;;47.60;32.63;;;;;;;;;;5038451;28;20183;-70
2022/10/15 06:04:59;;;;;;;44.83;32.83;;;;;;;;;;5038333;28;20218;-70
2022/10/15 06:07:26;;;;;;;46.10;33.00;;;;;;;;;;5056370;28;20174;-70
2022/10/15 06:09:52;;;;;;;45.53;33.63;;;;;;;;;;5056343;28;20178;-71
2022/10/15 06:12:18;;;;;;;50.10;32.67;;;;;;;;;;5056323;28;20190;-70
2022/10/15 06:14:44;;;;;;;43.17;32.10;;;;;;;;;;5038378;28;20209;-70
2022/10/15 06:17:10;;;;;;;45.17;32.73;;;;;;;;;;5056919;28;20190;-70
2022/10/15 06:19:36;;;;;;;46.93;31.93;;;;;;;;;;5056399;28;20657;-70
2022/10/15 06:22:02;;;;;;;49.77;32.90;;;;;;;;;;5056931;28;20591;-70
2022/10/15 06:24:28;;;;;;;47.93;31.63;;;;;;;;;;5038236;28;20692;-70
2022/10/15 06:26:54;;;;;;;51.57;32.40;;;;;;;;;;5038469;28;20171;-69
2022/10/15 06:29:20;;;;;;;50.77;32.50;;;;;;;;;;5056251;28;20182;-70
2022/10/15 06:31:45;;;;;;;48.10;31.63;;;;;;;;;;5056092;28;20174;-70
2022/10/15 06:34:11;;;;;;;54.17;32.57;;;;;;;;;;5038138;28;20175;-70
2022/10/15 06:36:37;;;;;;;50.23;31.57;;;;;;;;;;5055800;28;20249;-70
2022/10/15 06:39:03;;;;;;;51.20;33.20;;;;;;;;;;5037954;28;20178;-70
2022/10/15 06:41:29;;;;;;;44.80;31.07;;;;;;;;;;5056204;28;20183;-70
2022/10/15 06:43:55;;;;;;;49.40;32.63;;;;;;;;;;5038038;28;20185;-71
2022/10/15 06:46:21;;;;;;;49.47;31.37;;;;;;;;;;5055556;28;20206;-70
2022/10/15 06:48:48;;;;;;;43.27;30.70;;;;;;;;;;5037766;28;20692;-70
2022/10/15 06:51:14;;;;;;;48.40;30.77;;;;;;;;;;5056107;28;20220;-70
2022/10/15 06:53:42;;;;;;;41.70;29.80;;;;;;;;;;5055491;28;20182;-70
2022/10/15 06:56:08;;;;;;;50.57;31.03;;;;;;;;;;5055740;28;20233;-71
2022/10/15 06:58:34;;;;;;;46.37;29.87;;;;;;;;;;5056238;28;20222;-70
2022/10/15 07:01:04;;;;;;;45.90;30.43;;;;;;;;;;5055717;28;20178;-70
2022/10/15 07:03:30;;;;;;;48.50;31.50;;;;;;;;;;5055843;28;20167;-70
2022/10/15 07:06:01;;;;;;;46.03;32.17;;;;;;;;;;5037621;28;20241;-70
2022/10/15 07:08:27;;;;;;;44.50;31.70;;;;;;;;;;5038489;28;20652;-70
2022/10/15 07:10:53;;;;;;;47.03;30.80;;;;;;;;;;5056265;28;20175;-70
2022/10/15 07:13:19;;;;;;;53.20;32.80;;;;;;;;;;5037519;28;20182;-70
2022/10/15 07:15:46;;;;;;;58.80;32.83;;;;;;;;;;5055297;28;20199;-70
2022/10/15 07:18:12;;;;;;;54.97;34.40;;;;;;;;;;5056180;28;20178;-70
2022/10/15 07:20:38;;;;;;;53.47;34.67;;;;;;;;;;5055323;28;20183;-71
2022/10/15 07:23:03;;;;;;;48.33;34.60;;;;;;;;;;5055228;28;20214;-70
2022/10/15 07:25:29;;;;;;;53.53;35.17;;;;;;;;;;5036778;28;20214;-70
2022/10/15 07:27:56;;;;;;;59.90;37.37;;;;;;;;;;5054705;28;20631;-70
2022/10/15 07:30:23;;;;;;;60.13;37.93;;;;;;;;;;5036770;28;20193;-70
2022/10/15 07:32:49;;;;;;;57.33;37.70;;;;;;;;;;5036657;28;20189;-70
2022/10/15 07:35:15;;;;;;;60.13;37.93;;;;;;;;;;5036688;28;20198;-70
2022/10/15 07:37:41;;;;;;;56.03;35.57;;;;;;;;;;5054469;28;20561;-70
2022/10/15 07:40:07;;;;;;;68.90;40.43;;;;;;;;;;5036497;28;20178;-70
2022/10/15 07:42:33;;;;;;;60.07;38.47;;;;;;;;;;5054739;28;20587;-70
2022/10/15 07:44:59;;;;;;;56.23;35.20;;;;;;;;;;5054245;28;20305;-69
2022/10/15 07:47:25;;;;;;;56.30;37.07;;;;;;;;;;5054795;28;20166;-70
2022/10/15 07:49:51;;;;;;;52.00;36.40;;;;;;;;;;5053583;28;20179;-70
2022/10/15 07:52:17;;;;;;;49.03;32.03;;;;;;;;;;5054571;28;20235;-70
2022/10/15 07:54:43;;;;;;;46.67;32.70;;;;;;;;;;5054223;28;20206;-70
2022/10/15 07:57:09;;;;;;;45.07;31.37;;;;;;;;;;5054125;28;20693;-70
2022/10/15 07:59:35;;;;;;;43.73;31.20;;;;;;;;;;5054271;28;20265;-69
2022/10/15 08:02:01;;;;;;;37.87;29.23;;;;;;;;;;5054332;28;20179;-70
2022/10/15 08:04:27;;;;;;;40.03;27.57;;;;;;;;;;5053965;28;20185;-69
2022/10/15 08:06:53;;;;;;;35.97;27.37;;;;;;;;;;5036083;28;20184;-69
2022/10/15 08:09:18;;;;;;;37.93;28.00;;;;;;;;;;5053934;28;20174;-70
2022/10/15 08:11:44;;;;;;;36.80;27.07;;;;;;;;;;5053762;28;20178;-69
2022/10/15 08:14:10;;;;;;;36.37;27.20;;;;;;;;;;5035992;28;20236;-69
2022/10/15 08:16:36;;;;;;;34.27;26.10;;;;;;;;;;5035942;28;20175;-69
2022/10/15 08:19:03;;;;;;;37.33;25.83;;;;;;;;;;5053905;28;20178;-70
2022/10/15 08:21:29;;;;;;;34.03;26.00;;;;;;;;;;5054102;28;20228;-69
2022/10/15 08:23:55;;;;;;;31.20;24.80;;;;;;;;;;5035896;28;20193;-70
2022/10/15 08:26:21;;;;;;;31.73;24.57;;;;;;;;;;5053443;28;20198;-71
2022/10/15 08:28:47;;;;;;;30.53;26.03;;;;;;;;;;5053503;28;20174;-69
2022/10/15 08:31:13;;;;;;;33.97;26.43;;;;;;;;;;5053514;28;20182;-70
2022/10/15 08:33:39;;;;;;;31.27;25.87;;;;;;;;;;5053464;28;20266;-70
2022/10/15 08:36:06;;;;;;;37.30;26.20;;;;;;;;;;5053408;28;20273;-69
2022/10/15 08:38:32;;;;;;;29.80;22.50;;;;;;;;;;5035486;28;20174;-70
2022/10/15 08:40:59;;;;;;;30.10;22.30;;;;;;;;;;5053306;28;20179;-69
2022/10/15 08:43:29;;;;;;;25.90;21.00;;;;;;;;;;5053652;28;20202;-70
2022/10/15 08:45:58;;;;;;;22.37;18.93;;;;;;;;;;5053106;28;20222;-69
2022/10/15 08:48:33;;;;;;;20.33;16.37;;;;;;;;;;5035324;28;20588;-69
2022/10/15 08:51:13;;;;;;;20.97;15.87;;;;;;;;;;5053850;28;20257;-69
2022/10/15 08:53:51;;;;;;;17.17;14.93;;;;;;;;;;5053306;28;20183;-69
2022/10/15 08:56:19;;;;;;;23.07;16.37;;;;;;;;;;5053209;28;20201;-70
2022/10/15 08:58:48;;;;;;;19.90;15.27;;;;;;;;;;5053288;28;20171;-68
2022/10/15 09:01:21;;;;;;;16.63;13.97;;;;;;;;;;5035267;28;20179;-70
2022/10/15 09:03:59;;;;;;;19.13;12.73;;;;;;;;;;5035147;28;20553;-69
2022/10/15 09:06:27;;;;;;;15.80;13.53;;;;;;;;;;5052940;28;20277;-69
2022/10/15 09:08:59;;;;;;;16.20;12.77;;;;;;;;;;5053331;28;20206;-69
2022/10/15 09:11:34;;;;;;;14.87;11.00;;;;;;;;;;5035300;28;20205;-69
2022/10/15 09:14:00;;;;;;;13.40;10.53;;;;;;;;;;5035100;28;20182;-69
2022/10/15 09:16:32;;;;;;;11.60;9.57;;;;;;;;;;5057896;28;20202;-69
2022/10/15 09:19:00;;;;;;;9.30;8.40;;;;;;;;;;5066183;28;20186;-69
2022/10/15 09:21:26;;;;;;;9.70;8.27;;;;;;;;;;5068233;28;20258;-69
2022/10/15 09:23:55;;;;;;;10.67;9.33;;;;;;;;;;5068644;28;20608;-69
2022/10/15 09:26:27;;;;;;;12.23;8.57;;;;;;;;;;5067076;28;20263;-70
2022/10/15 09:28:53;;;;;;;11.47;7.23;;;;;;;;;;5046783;28;20183;-69
2022/10/15 09:31:21;;;;;;;8.07;7.27;;;;;;;;;;5063749;28;20256;-69
2022/10/15 09:33:50;;;;;;;12.30;7.30;;;;;;;;;;5065294;28;20698;-71
2022/10/15 09:36:23;;;;;;;9.77;6.50;;;;;;;;;;5035563;28;20213;-69
2022/10/15 09:38:55;;;;;;;6.80;6.10;;;;;;;;;;5035227;28;20183;-68
2022/10/15 09:41:47;;;;;;;7.93;5.57;;;;;;;;;;5052810;28;20232;-69
2022/10/15 09:44:14;;;;;;;8.70;5.43;;;;;;;;;;5052944;28;20158;-68
2022/10/15 09:46:44;;;;;;;5.87;5.27;;;;;;;;;;5053049;28;20209;-69
2022/10/15 09:49:17;;;;;;;6.77;5.10;;;;;;;;;;5053126;28;20265;-68
2022/10/15 09:51:45;;;;;;;5.87;5.27;;;;;;;;;;5053343;28;20611;-69
2022/10/15 09:54:24;;;;;;;5.77;4.63;;;;;;;;;;5035059;28;20183;-69
2022/10/15 09:56:53;;;;;;;4.07;3.70;;;;;;;;;;5052568;28;20174;-68
2022/10/15 09:59:20;;;;;;;6.30;4.03;;;;;;;;;;5052670;28;20216;-68
2022/10/15 10:01:57;;;;;;;6.43;3.87;;;;;;;;;;5052792;28;20228;-68
2022/10/15 10:04:25;;;;;;;5.53;3.90;;;;;;;;;;5052652;28;20261;-69
2022/10/15 10:06:52;;;;;;;4.00;3.50;;;;;;;;;;5052619;28;20185;-69
2022/10/15 10:09:20;;;;;;;4.83;3.80;;;;;;;;;;5053033;28;20179;-69
2022/10/15 10:11:51;;;;;;;5.97;3.23;;;;;;;;;;5053424;28;20175;-69
2022/10/15 10:14:32;;;;;;;5.43;3.50;;;;;;;;;;5056351;28;20224;-69
2022/10/15 10:17:10;;;;;;;5.43;3.73;;;;;;;;;;5038163;28;20200;-69
2022/10/15 10:19:37;;;;;;;3.57;3.27;;;;;;;;;;5056175;28;20178;-69
2022/10/15 10:22:06;;;;;;;6.00;3.23;;;;;;;;;;5056069;28;20552;-69
2022/10/15 10:24:33;;;;;;;5.20;2.87;;;;;;;;;;5056243;28;20233;-69
2022/10/15 10:27:00;;;;;;;2.97;2.60;;;;;;;;;;5056323;28;20201;-70
2022/10/15 10:29:26;;;;;;;3.23;2.70;;;;;;;;;;5038064;28;20677;-69
2022/10/15 10:31:52;;;;;;;3.83;2.67;;;;;;;;;;5055866;28;20171;-69
2022/10/15 10:34:26;;;;;;;3.77;2.67;;;;;;;;;;5055864;28;20178;-69
2022/10/15 10:36:53;;;;;;;2.70;2.50;;;;;;;;;;5037863;28;20615;-68
2022/10/15 10:39:32;;;;;;;3.30;3.00;;;;;;;;;;5055837;28;20261;-67
2022/10/15 10:41:59;;;;;;;35.70;10.20;;;;;;;;;;5055775;28;20174;-68
2022/10/15 10:44:28;;;;;;;7.00;3.30;;;;;;;;;;5055431;28;20225;-69
2022/10/15 10:47:02;;;;;;;5.93;3.47;;;;;;;;;;5037609;28;20175;-68
2022/10/15 10:49:32;;;;;;;7.30;5.77;;;;;;;;;;5055609;28;20590;-68
2022/10/15 10:51:58;;;;;;;8.63;6.87;;;;;;;;;;5055506;28;20662;-68
2022/10/15 10:54:25;;;;;;;10.87;6.37;;;;;;;;;;5056168;28;20174;-68
2022/10/15 10:56:52;;;;;;;13.53;8.67;;;;;;;;;;5057154;28;20170;-69
2022/10/15 10:59:18;;;;;;;13.70;8.67;;;;;;;;;;5055554;28;20166;-68
2022/10/15 11:01:44;;;;;;;12.67;8.00;;;;;;;;;;5055313;28;20185;-69
2022/10/15 11:04:14;;;;;;;8.53;6.03;;;;;;;;;;5037397;28;20236;-68
2022/10/15 11:06:40;;;;;;;8.47;7.50;;;;;;;;;;5055271;28;20221;-69
2022/10/15 11:09:06;;;;;;;9.03;6.80;;;;;;;;;;5037244;28;20266;-69
2022/10/15 11:11:41;;;;;;;7.13;5.67;;;;;;;;;;5055408;28;20229;-68
2022/10/15 11:14:31;;;;;;;6.40;5.57;;;;;;;;;;5037247;28;20650;-69
2022/10/15 11:17:07;;;;;;;8.10;5.77;;;;;;;;;;5037832;28;20170;-70
2022/10/15 11:20:05;;;;;;;8.40;5.87;;;;;;;;;;5055416;28;20190;-69
2022/10/15 11:22:40;;;;;;;6.23;4.60;;;;;;;;;;5000868;28;20198;-69
2022/10/15 11:25:13;;;;;;;7.43;5.00;;;;;;;;;;5036274;28;20209;-67
2022/10/15 11:27:46;;;;;;;5.70;4.60;;;;;;;;;;5037086;28;20174;-69
2022/10/15 11:30:22;;;;;;;4.50;4.10;;;;;;;;;;5055027;28;20158;-68
2022/10/15 11:32:48;;;;;;;7.07;3.93;;;;;;;;;;5055666;28;20519;-69
2022/10/15 11:35:26;;;;;;;3.77;3.43;;;;;;;;;;5038394;28;20202;-69
2022/10/15 11:38:08;;;;;;;4.90;3.40;;;;;;;;;;5037866;28;20182;-68
2022/10/15 11:40:52;;;;;;;5.13;4.37;;;;;;;;;;5036742;28;20206;-68
2022/10/15 11:43:36;;;;;;;6.53;3.50;;;;;;;;;;5036877;28;20205;-68
2022/10/15 11:46:08;;;;;;;4.70;4.00;;;;;;;;;;5054308;28;20261;-68
2022/10/15 11:48:50;;;;;;;6.53;3.60;;;;;;;;;;5036584;28;20186;-68
2022/10/15 11:51:16;;;;;;;4.63;4.23;;;;;;;;;;5054798;28;20184;-69
2022/10/15 11:53:57;;;;;;;5.63;5.03;;;;;;;;;;5054638;28;20195;-69
2022/10/15 11:56:26;;;;;;;6.80;4.80;;;;;;;;;;5036614;28;20217;-69
2022/10/15 11:58:54;;;;;;;5.40;4.40;;;;;;;;;;5036650;28;20193;-69
2022/10/15 12:01:25;;;;;;;7.63;4.20;;;;;;;;;;5055495;28;20585;-69
2022/10/15 12:04:09;;;;;;;6.87;4.13;;;;;;;;;;5054502;28;20245;-68
2022/10/15 12:06:39;;;;;;;4.77;4.03;;;;;;;;;;5036238;28;20213;-68
2022/10/15 12:09:06;;;;;;;6.80;4.67;;;;;;;;;;5054013;28;20159;-69
2022/10/15 12:11:45;;;;;;;7.00;3.90;;;;;;;;;;5036436;28;20597;-69
2022/10/15 12:14:17;;;;;;;5.83;3.70;;;;;;;;;;5035934;28;20593;-68
2022/10/15 12:16:51;;;;;;;3.53;3.07;;;;;;;;;;5035932;28;20690;-70
2022/10/15 12:19:18;;;;;;;4.23;3.20;;;;;;;;;;5053964;28;20190;-68
2022/10/15 12:21:56;;;;;;;3.77;2.90;;;;;;;;;;5053853;28;20202;-69
2022/10/15 12:24:38;;;;;;;4.27;3.33;;;;;;;;;;5053960;28;20190;-69
2022/10/15 12:27:19;;;;;;;3.50;3.20;;;;;;;;;;5035656;28;20255;-69
2022/10/15 12:29:48;;;;;;;7.20;3.77;;;;;;;;;;5053735;28;20174;-69
2022/10/15 12:32:27;;;;;;;8.40;4.03;;;;;;;;;;5054077;28;20181;-70
2022/10/15 12:34:57;;;;;;;5.57;4.00;;;;;;;;;;5053256;28;20201;-69
2022/10/15 12:37:26;;;;;;;7.27;4.30;;;;;;;;;;5053539;28;20185;-69
2022/10/15 12:40:12;;;;;;;11.73;9.23;;;;;;;;;;5053938;28;20178;-69
2022/10/15 12:42:38;;;;;;;7.27;6.30;;;;;;;;;;5022147;28;20236;-70
2022/10/15 12:45:17;;;;;;;5.40;3.10;;;;;;;;;;5053304;28;20217;-69
2022/10/15 12:47:48;;;;;;;9.57;5.40;;;;;;;;;;5053564;28;20183;-69
2022/10/15 12:50:19;;;;;;;8.07;6.63;;;;;;;;;;5035460;28;20197;-71
2022/10/15 12:52:53;;;;;;;6.73;2.30;;;;;;;;;;5053372;28;20183;-69
2022/10/15 12:55:21;;;;;;;13.63;6.73;;;;;;;;;;5053183;28;20208;-69
2022/10/15 12:57:47;;;;;;;6.87;5.23;;;;;;;;;;5035332;28;20182;-69
2022/10/15 13:00:25;;;;;;;6.73;2.10;;;;;;;;;;5053240;28;20178;-71
2022/10/15 13:02:51;;;;;;;11.17;7.47;;;;;;;;;;5035372;28;20182;-69
2022/10/15 13:05:25;;;;;;;4.00;2.30;;;;;;;;;;5035031;28;20619;-69
2022/10/15 13:07:52;;;;;;;3.03;1.60;;;;;;;;;;5053053;28;20224;-70
2022/10/15 13:10:25;;;;;;;4.30;2.03;;;;;;;;;;5053416;28;20228;-70
2022/10/15 13:12:53;;;;;;;1.80;1.70;;;;;;;;;;5053078;28;20715;-68
2022/10/15 13:15:19;;;;;;;4.17;2.47;;;;;;;;;;5052939;28;20209;-69
2022/10/15 13:17:45;;;;;;;12.53;8.90;;;;;;;;;;5050506;23;20693;-66
2022/10/15 13:20:32;;;;;;;30.20;22.80;;;;;;;;;;5032968;28;20562;-66
2022/10/15 13:23:08;;;;;;;2.83;2.50;;;;;;;;;;5015239;28;20171;-65
2022/10/15 13:25:34;;;;;;;22.53;17.47;;;;;;;;;;5033231;28;20199;-66
2022/10/15 13:28:00;;;;;;;4.00;2.87;;;;;;;;;;5032988;28;20203;-66
2022/10/15 13:30:26;;;;;;;3.93;1.67;;;;;;;;;;5015419;28;20661;-66
2022/10/15 13:32:53;;;;;;;1.83;1.43;;;;;;;;;;5033221;28;20175;-66
2022/10/15 13:35:22;;;;;;;2.10;1.30;;;;;;;;;;5032878;28;20210;-66
2022/10/15 13:37:48;;;;;;;2.50;1.40;;;;;;;;;;5032876;28;20199;-66
2022/10/15 13:40:25;;;;;;;2.27;1.40;;;;;;;;;;5033425;28;20526;-66
2022/10/15 13:42:59;;;;;;;1.10;1.10;;;;;;;;;;5032826;28;20190;-67
2022/10/15 13:45:25;;;;;;;19.70;5.50;;;;;;;;;;5032838;28;20198;-65
2022/10/15 13:47:52;;;;;;;11.27;3.70;;;;;;;;;;5035107;28;20191;-65
2022/10/15 13:50:27;;;;;;;2.13;1.47;;;;;;;;;;5036643;28;20640;-65
2022/10/15 13:53:01;;;;;;;2.10;1.30;;;;;;;;;;5036653;28;20178;-65
2022/10/15 13:55:28;;;;;;;1.30;1.20;;;;;;;;;;5036669;28;20188;-65
2022/10/15 13:58:17;;;;;;;4.63;2.30;;;;;;;;;;5036514;28;20203;-65
2022/10/15 14:00:48;;;;;;;4.40;2.30;;;;;;;;;;5012493;28;20242;-66
2022/10/15 14:03:24;;;;;;;2.57;1.60;;;;;;;;;;5036824;28;20171;-67
2022/10/15 14:05:51;;;;;;;5.33;1.90;;;;;;;;;;5036614;28;20205;-65
2022/10/15 14:08:22;;;;;;;5.27;1.93;;;;;;;;;;5018774;28;20199;-66
2022/10/15 14:10:49;;;;;;;2.40;1.73;;;;;;;;;;5036573;28;20179;-66
2022/10/15 14:13:15;;;;;;;3.80;1.90;;;;;;;;;;5018577;28;20186;-66
2022/10/15 14:15:53;;;;;;;4.20;1.70;;;;;;;;;;5018443;28;20197;-67
2022/10/15 14:18:27;;;;;;;1.97;1.70;;;;;;;;;;5035840;28;20234;-66
2022/10/15 14:20:54;;;;;;;4.43;1.90;;;;;;;;;;5036083;28;20529;-67
2022/10/15 14:23:23;;;;;;;2.20;2.00;;;;;;;;;;5036055;28;20294;-66
2022/10/15 14:25:57;;;;;;;2.20;2.00;;;;;;;;;;5036393;28;20609;-66
2022/10/15 14:28:24;;;;;;;2.23;2.00;;;;;;;;;;5018144;28;20202;-66
2022/10/15 14:30:50;;;;;;;2.40;1.97;;;;;;;;;;5035782;28;20270;-66
2022/10/15 14:33:50;;;;;;;3.13;2.10;;;;;;;;;;5035749;28;20545;-67
2022/10/15 14:36:19;;;;;;;2.20;1.97;;;;;;;;;;4992823;28;20231;-66
2022/10/15 14:38:45;;;;;;;2.17;1.97;;;;;;;;;;5017759;28;20651;-65
2022/10/15 14:41:20;;;;;;;2.17;2.07;;;;;;;;;;5035476;28;20182;-67